Time;durP1;ratioP1;P1;durP2;ratioP2;P2;SDS_P1;SDS_P2;PMS_P1;PMS_P2;Temp;Humidity;BMP_temperature;BMP_pressure;BME280_temperature;BME280_humidity;BME280_pressure;Samples;Min_cycle;Max_cycle;Signal;HPM_P1;HPM_P2
2023/11/28 00:01:02;;;;;;;3.00;2.80;;;5.60;99.90;;;;;;4996543;28;20049;-92
2023/11/28 00:03:28;;;;;;;3.83;3.53;;;4.90;99.90;;;;;;5002288;28;20030;-90
2023/11/28 00:05:54;;;;;;;3.45;3.20;;;5.80;99.90;;;;;;5003609;28;20057;-89
2023/11/28 00:08:20;;;;;;;4.18;3.88;;;5.70;99.90;;;;;;4999654;28;20022;-91
2023/11/28 00:10:46;;;;;;;4.38;3.97;;;5.20;99.90;;;;;;4994759;28;20041;-92
2023/11/28 00:13:13;;;;;;;5.13;4.72;;;4.60;99.90;;;;;;4995644;28;20046;-91
2023/11/28 00:15:38;;;;;;;5.57;5.18;;;4.90;99.90;;;;;;4995205;28;20030;-92
2023/11/28 00:18:04;;;;;;;5.28;4.88;;;5.80;99.90;;;;;;4995592;28;20037;-91
2023/11/28 00:20:30;;;;;;;5.20;4.80;;;4.80;99.90;;;;;;4995799;28;20037;-91
2023/11/28 00:22:59;;;;;;;6.05;5.55;;;4.80;99.90;;;;;;4994856;28;20161;-91
2023/11/28 00:25:24;;;;;;;5.75;5.35;;;4.50;99.90;;;;;;4995321;28;20031;-91
2023/11/28 00:27:50;;;;;;;6.25;5.75;;;5.60;99.90;;;;;;4994497;28;20030;-91
2023/11/28 00:30:16;;;;;;;6.32;5.82;;;4.50;99.90;;;;;;4993952;28;20023;-91
2023/11/28 00:32:50;;;;;;;6.15;5.65;;;4.70;99.90;;;;;;4982573;28;20452;-90
2023/11/28 00:35:16;;;;;;;5.65;5.20;;;5.70;99.90;;;;;;4994362;28;20023;-88
2023/11/28 00:37:41;;;;;;;6.30;5.80;;;5.80;99.90;;;;;;4994023;28;20023;-91
2023/11/28 00:40:11;;;;;;;5.88;5.47;;;5.00;99.90;;;;;;4995030;28;20031;-89
2023/11/28 00:42:38;;;;;;;5.97;5.47;;;4.80;99.90;;;;;;4994496;28;20030;-91
2023/11/28 00:45:05;;;;;;;6.20;5.70;;;5.70;99.90;;;;;;4989794;28;20486;-92
2023/11/28 00:47:39;;;;;;;6.50;5.78;;;4.70;99.90;;;;;;4994863;28;20054;-91
2023/11/28 00:50:06;;;;;;;6.63;6.13;;;5.30;99.90;;;;;;4995155;28;20366;-90
2023/11/28 00:52:32;;;;;;;5.40;5.00;;;4.80;99.90;;;;;;4994049;28;20069;-91
2023/11/28 00:54:57;;;;;;;6.10;5.63;;;5.70;99.90;;;;;;4994864;28;20026;-90
2023/11/28 00:57:23;;;;;;;6.40;5.90;;;5.70;99.90;;;;;;4987740;28;20052;-90
2023/11/28 00:59:48;;;;;;;5.57;5.10;;;4.70;99.90;;;;;;4978361;28;20026;-90
2023/11/28 01:02:14;;;;;;;5.32;4.93;;;5.00;99.90;;;;;;4974941;28;20030;-91
2023/11/28 01:04:40;;;;;;;5.60;5.20;;;6.00;99.90;;;;;;4975336;28;20073;-90
2023/11/28 01:07:05;;;;;;;5.65;5.22;;;5.70;99.90;;;;;;4974298;28;20031;-91
2023/11/28 01:09:31;;;;;;;5.82;5.35;;;4.60;99.90;;;;;;4979360;28;20051;-91
2023/11/28 01:11:56;;;;;;;5.32;4.93;;;5.80;99.90;;;;;;4989785;28;20034;-90
2023/11/28 01:14:22;;;;;;;5.43;4.93;;;5.40;99.90;;;;;;4993897;28;20035;-89
2023/11/28 01:16:47;;;;;;;6.03;5.53;;;5.80;99.90;;;;;;4994201;28;20057;-91
2023/11/28 01:19:13;;;;;;;6.60;5.20;;;5.60;99.90;;;;;;4985507;28;20069;-89
2023/11/28 01:21:39;;;;;;;5.07;4.70;;;5.60;99.90;;;;;;4984910;28;20102;-89
2023/11/28 01:24:05;;;;;;;4.88;4.47;;;4.60;99.90;;;;;;4978645;28;20114;-90
2023/11/28 01:26:30;;;;;;;4.50;4.13;;;4.60;99.90;;;;;;4978179;28;20029;-91
2023/11/28 01:28:56;;;;;;;5.65;5.18;;;4.50;99.90;;;;;;4979014;28;20510;-89
2023/11/28 01:31:25;;;;;;;5.78;5.28;;;5.70;99.90;;;;;;4978476;28;20046;-89
2023/11/28 01:33:50;;;;;;;5.43;4.78;;;5.00;99.90;;;;;;4988950;28;20026;-90
2023/11/28 01:36:16;;;;;;;5.43;4.93;;;5.60;99.90;;;;;;4997483;28;20113;-89
2023/11/28 01:38:42;;;;;;;5.57;5.10;;;4.60;99.90;;;;;;4997634;28;20030;-89
2023/11/28 01:41:08;;;;;;;4.93;4.53;;;5.10;99.90;;;;;;4997262;28;20046;-89
2023/11/28 01:43:34;;;;;;;4.72;4.10;;;4.50;99.90;;;;;;4997321;28;20030;-90
2023/11/28 01:46:03;;;;;;;4.60;4.20;;;4.50;99.90;;;;;;4993488;28;20471;-90
2023/11/28 01:48:30;;;;;;;5.15;4.75;;;4.60;99.90;;;;;;4997840;28;20030;-90
2023/11/28 01:50:55;;;;;;;4.75;4.35;;;4.50;99.90;;;;;;5000049;28;20038;-90
2023/11/28 01:53:21;;;;;;;4.72;4.32;;;5.00;99.90;;;;;;4998029;28;20037;-91
2023/11/28 01:55:48;;;;;;;5.10;4.55;;;5.70;99.90;;;;;;4996455;28;20402;-89
2023/11/28 01:58:15;;;;;;;4.93;4.47;;;4.50;99.90;;;;;;4984757;28;20041;-90
2023/11/28 02:00:41;;;;;;;6.32;4.78;;;4.40;99.90;;;;;;4995725;28;20030;-89
2023/11/28 02:03:09;;;;;;;4.75;4.13;;;4.30;99.90;;;;;;4996667;28;20367;-91
2023/11/28 02:05:35;;;;;;;4.85;4.43;;;4.20;99.90;;;;;;4996792;28;20033;-91
2023/11/28 02:08:04;;;;;;;4.47;4.07;;;5.30;99.90;;;;;;4985128;28;20089;-90
2023/11/28 02:10:33;;;;;;;4.45;4.05;;;4.30;99.90;;;;;;4994428;28;20023;-89
2023/11/28 02:12:59;;;;;;;4.85;4.40;;;4.30;99.90;;;;;;4997477;28;20054;-91
2023/11/28 02:15:41;;;;;;;5.75;4.30;;;4.80;99.90;;;;;;4996375;28;20093;-91
2023/11/28 02:18:09;;;;;;;4.82;3.72;;;5.30;99.90;;;;;;4996317;28;20034;-91
2023/11/28 02:20:35;;;;;;;4.20;3.90;;;5.00;99.90;;;;;;4991733;28;20097;-91
2023/11/28 02:23:01;;;;;;;5.53;4.28;;;5.40;99.90;;;;;;4977310;28;20027;-89
2023/11/28 02:25:29;;;;;;;6.10;4.05;;;5.20;99.90;;;;;;4977291;28;20027;-90
2023/11/28 02:27:55;;;;;;;7.65;3.95;;;4.30;99.90;;;;;;4977582;28;20027;-89
2023/11/28 02:30:21;;;;;;;4.03;3.65;;;5.00;99.90;;;;;;4980720;28;20395;-91
2023/11/28 02:32:47;;;;;;;5.00;4.10;;;4.30;99.90;;;;;;4998204;28;20043;-90
2023/11/28 02:35:12;;;;;;;5.57;4.50;;;4.20;99.90;;;;;;5001325;28;20114;-90
2023/11/28 02:37:38;;;;;;;4.65;4.20;;;5.20;99.90;;;;;;4992856;28;20038;-91
2023/11/28 02:40:05;;;;;;;4.00;3.70;;;4.30;99.90;;;;;;4992258;28;20034;-90
2023/11/28 02:42:30;;;;;;;5.28;4.78;;;4.30;99.90;;;;;;4978662;28;20023;-92
2023/11/28 02:44:56;;;;;;;4.60;4.20;;;5.30;99.90;;;;;;4984930;28;20113;-90
2023/11/28 02:47:22;;;;;;;6.28;4.03;;;4.90;99.90;;;;;;4996612;28;20030;-91
2023/11/28 02:49:47;;;;;;;5.00;4.60;;;5.30;99.90;;;;;;4996561;28;20041;-88
2023/11/28 02:52:13;;;;;;;4.32;3.92;;;4.20;99.90;;;;;;4996271;28;20043;-92
2023/11/28 02:54:40;;;;;;;4.20;3.80;;;5.00;99.90;;;;;;4983819;28;20031;-89
2023/11/28 02:57:06;;;;;;;6.20;4.15;;;4.30;99.90;;;;;;4993463;28;20542;-91
2023/11/28 02:59:32;;;;;;;4.85;3.83;;;4.30;99.90;;;;;;4996371;28;20050;-89
2023/11/28 03:01:57;;;;;;;5.07;4.38;;;4.30;99.90;;;;;;4997423;28;20114;-91
2023/11/28 03:04:23;;;;;;;3.70;3.38;;;4.10;99.90;;;;;;4992489;28;20034;-90
2023/11/28 03:09:17;;;;;;;3.80;3.50;;;4.20;99.90;;;;;;5050634;22;20080;-90
2023/11/28 03:11:59;;;;;;;4.10;3.80;;;4.20;99.90;;;;;;5035943;28;20069;-91
2023/11/28 03:14:26;;;;;;;6.18;3.60;;;4.90;99.90;;;;;;5035141;28;20021;-89
2023/11/28 03:16:52;;;;;;;3.38;3.08;;;4.00;99.90;;;;;;5018832;28;20034;-92
2023/11/28 03:19:17;;;;;;;5.20;3.30;;;4.00;99.90;;;;;;5015628;28;20125;-91
2023/11/28 03:21:43;;;;;;;3.78;3.10;;;5.30;99.90;;;;;;5022326;28;20056;-89
2023/11/28 03:24:08;;;;;;;3.80;3.45;;;5.00;99.90;;;;;;5034789;28;20025;-91
2023/11/28 03:26:34;;;;;;;3.40;3.10;;;4.10;99.90;;;;;;5030705;28;20026;-90
2023/11/28 03:29:00;;;;;;;5.22;3.78;;;4.00;99.90;;;;;;5036777;28;20029;-90
2023/11/28 03:31:25;;;;;;;4.20;3.22;;;4.00;99.90;;;;;;5025322;28;20041;-90
2023/11/28 03:33:51;;;;;;;4.70;3.70;;;4.70;99.90;;;;;;5035005;28;20018;-91
2023/11/28 03:36:17;;;;;;;3.97;3.25;;;4.80;99.90;;;;;;5028058;28;20026;-92
2023/11/28 03:38:45;;;;;;;4.18;3.67;;;3.90;99.90;;;;;;5023909;28;20034;-92
2023/11/28 03:41:11;;;;;;;4.75;3.50;;;3.90;99.90;;;;;;5033167;28;20048;-92
2023/11/28 03:43:36;;;;;;;4.00;3.08;;;4.70;99.90;;;;;;5034352;28;20026;-91
2023/11/28 03:46:02;;;;;;;2.72;2.40;;;5.00;99.90;;;;;;5034289;28;20032;-88
2023/11/28 03:48:28;;;;;;;4.07;2.95;;;3.90;99.90;;;;;;5034455;28;20032;-92
2023/11/28 03:50:53;;;;;;;2.65;2.30;;;3.80;99.90;;;;;;5028239;28;20088;-90
2023/11/28 03:53:19;;;;;;;3.25;2.33;;;3.80;99.90;;;;;;5024130;28;20026;-92
2023/11/28 03:55:44;;;;;;;3.20;1.90;;;3.80;99.90;;;;;;5014847;28;20418;-92
2023/11/28 03:58:10;;;;;;;3.38;1.92;;;3.60;99.90;;;;;;5014885;28;20101;-90
2023/11/28 04:00:41;;;;;;;3.35;1.80;;;4.30;99.90;;;;;;5014606;28;20033;-91
2023/11/28 04:03:06;;;;;;;3.33;1.77;;;4.50;99.90;;;;;;5014825;28;20025;-91
2023/11/28 04:05:32;;;;;;;2.00;1.38;;;3.60;99.90;;;;;;5023560;28;20612;-91
2023/11/28 04:07:57;;;;;;;2.38;1.70;;;3.50;99.90;;;;;;5033503;28;20164;-90
2023/11/28 04:10:23;;;;;;;3.08;1.60;;;3.50;99.90;;;;;;5033881;28;20025;-90
2023/11/28 04:12:49;;;;;;;1.60;1.50;;;4.50;99.90;;;;;;5033544;28;20034;-87
2023/11/28 04:15:15;;;;;;;1.60;1.45;;;4.30;99.90;;;;;;5022301;28;20030;-89
2023/11/28 04:17:40;;;;;;;1.88;1.58;;;3.40;99.90;;;;;;5031702;28;20028;-89
2023/11/28 04:20:06;;;;;;;3.17;1.45;;;3.40;99.90;;;;;;5033859;28;20021;-89
2023/11/28 04:22:32;;;;;;;2.30;1.13;;;3.40;99.90;;;;;;5033122;28;20497;-89
2023/11/28 04:24:58;;;;;;;1.48;1.38;;;3.30;99.90;;;;;;5034414;28;20036;-91
2023/11/28 04:27:23;;;;;;;2.47;1.75;;;4.30;99.90;;;;;;5026372;28;20392;-89
2023/11/28 04:29:49;;;;;;;1.55;1.45;;;4.10;99.90;;;;;;5014730;28;20517;-90
2023/11/28 04:32:14;;;;;;;6.50;1.27;;;3.20;99.90;;;;;;5014665;28;20501;-92
2023/11/28 04:34:40;;;;;;;2.60;0.90;;;4.10;99.90;;;;;;5014018;28;20095;-90
2023/11/28 04:37:06;;;;;;;2.47;1.23;;;2.20;99.90;;;;;;5013761;28;20021;-91
2023/11/28 04:39:31;;;;;;;4.63;1.30;;;4.20;99.90;;;;;;5028432;28;20523;-91
2023/11/28 04:41:57;;;;;;;1.15;0.90;;;4.40;99.90;;;;;;5014340;28;20056;-90
2023/11/28 04:44:23;;;;;;;1.00;0.90;;;4.30;99.90;;;;;;5013772;28;20109;-90
2023/11/28 04:46:49;;;;;;;1.35;1.15;;;3.50;99.90;;;;;;5014222;28;20112;-89
2023/11/28 04:49:15;;;;;;;1.05;0.98;;;3.10;99.90;;;;;;5014343;28;20022;-93
2023/11/28 04:51:41;;;;;;;1.75;1.20;;;3.10;99.90;;;;;;5021141;28;20038;-91
2023/11/28 04:54:07;;;;;;;1.20;1.10;;;4.00;99.90;;;;;;5021623;28;20105;-91
2023/11/28 04:56:33;;;;;;;1.13;0.80;;;4.20;99.90;;;;;;5013836;28;20028;-92
2023/11/28 04:58:58;;;;;;;1.25;1.00;;;3.60;99.90;;;;;;5014030;28;20040;-91
2023/11/28 05:01:24;;;;;;;4.43;1.15;;;3.20;99.90;;;;;;5014451;28;20033;-90
2023/11/28 05:03:50;;;;;;;1.08;0.98;;;4.20;99.90;;;;;;5016826;28;20029;-90
2023/11/28 05:06:16;;;;;;;2.72;1.08;;;4.20;99.90;;;;;;5019483;28;20022;-90
2023/11/28 05:08:42;;;;;;;3.20;1.27;;;3.60;99.90;;;;;;5014101;28;20401;-91
2023/11/28 05:11:07;;;;;;;2.67;1.60;;;3.00;99.90;;;;;;5015689;28;20038;-90
2023/11/28 05:13:37;;;;;;;2.28;1.00;;;4.20;99.90;;;;;;5019624;28;20122;-91
2023/11/28 05:16:03;;;;;;;2.78;1.50;;;4.20;99.90;;;;;;5031148;28;20100;-90
2023/11/28 05:18:28;;;;;;;1.90;1.15;;;3.00;99.90;;;;;;5033691;28;20021;-90
2023/11/28 05:20:54;;;;;;;2.33;1.02;;;3.10;99.90;;;;;;5033953;28;20026;-92
2023/11/28 05:23:20;;;;;;;1.55;1.45;;;4.10;99.90;;;;;;5033684;28;20018;-91
2023/11/28 05:25:45;;;;;;;1.20;1.10;;;3.90;99.90;;;;;;5030370;28;20026;-92
2023/11/28 05:28:11;;;;;;;1.80;1.48;;;3.80;99.90;;;;;;5034645;28;20418;-90
2023/11/28 05:30:38;;;;;;;1.15;1.05;;;3.10;99.90;;;;;;5034162;28;20041;-93
2023/11/28 05:33:04;;;;;;;1.98;1.17;;;3.10;99.90;;;;;;5033178;28;20254;-91
2023/11/28 05:35:29;;;;;;;1.20;1.10;;;4.00;99.90;;;;;;5037459;28;20026;-92
2023/11/28 05:37:55;;;;;;;3.47;1.00;;;4.50;99.90;;;;;;5030672;28;20041;-92
2023/11/28 05:40:21;;;;;;;1.48;1.20;;;3.00;99.90;;;;;;5050931;28;20033;-91
2023/11/28 05:42:47;;;;;;;2.90;1.00;;;3.70;99.90;;;;;;5056826;28;20020;-91
2023/11/28 05:45:13;;;;;;;1.70;1.10;;;3.90;99.90;;;;;;5056655;28;20014;-92
2023/11/28 05:47:38;;;;;;;2.47;1.00;;;3.20;99.90;;;;;;5054312;28;20010;-91
2023/11/28 05:50:07;;;;;;;5.03;1.90;;;4.60;99.90;;;;;;5047034;28;20048;-90
2023/11/28 05:52:34;;;;;;;2.60;1.23;;;3.20;99.90;;;;;;5038777;28;20045;-92
2023/11/28 05:55:00;;;;;;;1.27;1.00;;;3.20;99.90;;;;;;5034578;28;20036;-93
2023/11/28 05:57:27;;;;;;;1.10;0.88;;;4.30;99.90;;;;;;5032254;28;20472;-92
2023/11/28 05:59:53;;;;;;;0.82;0.82;;;3.00;99.90;;;;;;5018542;28;20056;-91
2023/11/28 06:02:19;;;;;;;1.15;1.00;;;3.20;99.90;;;;;;5012791;28;20038;-92
2023/11/28 06:04:44;;;;;;;1.10;1.00;;;3.30;99.90;;;;;;5014158;28;20025;-92
2023/11/28 06:07:10;;;;;;;3.25;1.10;;;3.30;99.90;;;;;;5019286;28;20373;-91
2023/11/28 06:09:37;;;;;;;2.30;1.20;;;3.80;99.90;;;;;;5016720;28;20164;-90
2023/11/28 06:12:03;;;;;;;1.45;1.05;;;4.20;99.90;;;;;;5024997;28;20551;-91
2023/11/28 06:14:35;;;;;;;1.77;0.63;;;3.30;99.90;;;;;;5036912;28;20052;-91
2023/11/28 06:17:04;;;;;;;1.13;0.90;;;2.60;99.90;;;;;;5037470;28;20029;-92
2023/11/28 06:19:35;;;;;;;2.13;0.88;;;4.30;99.90;;;;;;5038248;28;20489;-92
2023/11/28 06:22:01;;;;;;;2.53;1.00;;;2.10;99.90;;;;;;5034295;28;20092;-91
2023/11/28 06:24:42;;;;;;;1.10;0.90;;;4.40;99.90;;;;;;5031944;28;20109;-93
2023/11/28 06:27:08;;;;;;;1.80;1.00;;;2.60;99.90;;;;;;5038764;28;20025;-94
2023/11/28 06:29:49;;;;;;;0.85;0.68;;;3.80;99.90;;;;;;5045013;22;20053;-94
2023/11/28 06:32:15;;;;;;;4.32;1.30;;;3.10;99.90;;;;;;5038243;28;20041;-91
2023/11/28 06:34:45;;;;;;;6.72;0.88;;;3.80;99.90;;;;;;5033950;28;20056;-92
2023/11/28 06:37:13;;;;;;;0.95;0.82;;;3.80;99.90;;;;;;5034914;28;20116;-93
2023/11/28 06:39:47;;;;;;;3.92;1.95;;;3.00;99.90;;;;;;5026001;28;20033;-92
2023/11/28 06:42:16;;;;;;;3.20;1.20;;;3.60;99.90;;;;;;5017157;28;20084;-93
2023/11/28 06:44:45;;;;;;;1.60;1.15;;;3.80;99.90;;;;;;5016646;28;20022;-92
2023/11/28 06:47:13;;;;;;;1.48;0.85;;;3.80;99.90;;;;;;5016694;28;20026;-91
2023/11/28 06:49:45;;;;;;;2.05;1.17;;;3.90;99.90;;;;;;5015640;28;20478;-91
2023/11/28 06:52:11;;;;;;;2.55;0.90;;;3.20;99.90;;;;;;5016683;28;20041;-91
2023/11/28 06:54:37;;;;;;;2.42;1.13;;;3.70;99.90;;;;;;5030529;28;20040;-91
2023/11/28 06:57:02;;;;;;;1.40;1.00;;;3.00;99.90;;;;;;5033749;28;20026;-91
2023/11/28 06:59:28;;;;;;;2.50;1.52;;;3.00;99.90;;;;;;5038436;28;20028;-91
2023/11/28 07:01:54;;;;;;;3.60;1.60;;;4.00;99.90;;;;;;5018293;28;20471;-93
2023/11/28 07:04:23;;;;;;;2.60;1.50;;;3.10;99.90;;;;;;5015978;28;20022;-92
2023/11/28 07:06:48;;;;;;;2.03;1.25;;;3.10;99.90;;;;;;5016144;28;20021;-91
2023/11/28 07:09:16;;;;;;;1.58;1.20;;;3.10;99.90;;;;;;5016019;28;20083;-92
2023/11/28 07:11:42;;;;;;;1.33;1.02;;;4.00;99.90;;;;;;5015004;28;20084;-91
2023/11/28 07:14:08;;;;;;;2.30;1.08;;;3.20;99.90;;;;;;5017005;28;20466;-92
2023/11/28 07:16:34;;;;;;;2.25;1.15;;;4.60;99.90;;;;;;5015714;28;20470;-92
2023/11/28 07:19:00;;;;;;;1.35;1.25;;;3.20;99.90;;;;;;5017381;28;20168;-87
2023/11/28 07:21:25;;;;;;;1.08;0.90;;;3.30;99.90;;;;;;5018005;28;20482;-91
2023/11/28 07:23:51;;;;;;;1.50;1.10;;;4.60;99.90;;;;;;5022278;28;20025;-93
2023/11/28 07:26:19;;;;;;;3.22;1.30;;;4.10;99.90;;;;;;5025982;28;20036;-94
2023/11/28 07:28:45;;;;;;;1.27;1.15;;;4.20;99.90;;;;;;5032498;28;20029;-94
2023/11/28 07:31:13;;;;;;;1.58;0.95;;;3.10;99.90;;;;;;5030075;28;20037;-90
2023/11/28 07:33:39;;;;;;;2.65;1.33;;;4.00;99.90;;;;;;5023459;28;20092;-87
2023/11/28 07:36:16;;;;;;;3.95;1.30;;;3.10;99.90;;;;;;5022804;28;20058;-92
2023/11/28 07:38:45;;;;;;;1.60;1.10;;;3.20;99.90;;;;;;5017804;28;20026;-88
2023/11/28 07:41:16;;;;;;;3.45;1.25;;;4.00;99.90;;;;;;5015835;28;20034;-89
2023/11/28 07:43:42;;;;;;;3.25;1.13;;;3.10;99.90;;;;;;5012549;28;20022;-86
2023/11/28 07:46:09;;;;;;;2.85;1.30;;;3.10;99.90;;;;;;5012803;28;20474;-89
2023/11/28 07:48:43;;;;;;;4.40;1.52;;;3.20;99.90;;;;;;5010670;28;20041;-93
2023/11/28 07:51:09;;;;;;;5.38;1.65;;;3.10;99.90;;;;;;5015848;28;20125;-93
2023/11/28 07:53:35;;;;;;;5.10;1.55;;;2.70;99.90;;;;;;5016356;28;20180;-92
2023/11/28 07:56:03;;;;;;;3.80;1.55;;;3.00;99.90;;;;;;5006116;28;20048;-91
2023/11/28 07:58:29;;;;;;;2.08;1.30;;;2.90;99.90;;;;;;5013702;28;20026;-92
2023/11/28 08:01:00;;;;;;;3.22;1.67;;;3.10;99.90;;;;;;5012212;28;20458;-93
2023/11/28 08:03:36;;;;;;;3.05;1.40;;;2.90;99.90;;;;;;5010435;28;20033;-93
2023/11/28 08:06:09;;;;;;;1.73;1.58;;;3.20;99.90;;;;;;5009396;28;20382;-93
2023/11/28 08:08:40;;;;;;;1.75;1.60;;;3.20;99.90;;;;;;5001916;28;20025;-92
2023/11/28 08:11:14;;;;;;;2.58;2.35;;;3.40;99.90;;;;;;5047380;23;20104;-93
2023/11/28 08:16:23;;;;;;;2.30;1.27;;;3.30;99.90;;;;;;5288221;22;20521;-95
2023/11/28 08:21:31;;;;;;;6.35;1.65;;;3.30;99.90;;;;;;5624997;22;20187;-91
2023/11/28 08:23:57;;;;;;;1.58;1.30;;;4.30;99.90;;;;;;5031772;28;20056;-92
2023/11/28 08:26:22;;;;;;;3.38;1.92;;;4.20;99.90;;;;;;5014501;28;20462;-92
2023/11/28 08:28:53;;;;;;;3.10;1.70;;;3.40;99.90;;;;;;5017312;28;20041;-93
2023/11/28 08:31:28;;;;;;;3.33;1.73;;;3.10;99.90;;;;;;5024579;28;20117;-89
2023/11/28 08:34:12;;;;;;;3.70;2.25;;;2.60;99.90;;;;;;5032576;28;20112;-90
2023/11/28 08:36:37;;;;;;;3.90;2.70;;;3.40;99.90;;;;;;5032867;28;20071;-90
2023/11/28 08:39:06;;;;;;;3.80;2.30;;;3.50;99.90;;;;;;5036022;28;20025;-90
2023/11/28 08:41:46;;;;;;;4.63;2.35;;;3.20;99.90;;;;;;5015363;28;20049;-90
2023/11/28 08:44:18;;;;;;;4.95;2.40;;;4.30;99.90;;;;;;5023542;28;20025;-91
2023/11/28 08:46:43;;;;;;;4.50;2.50;;;3.30;99.90;;;;;;5025021;28;20026;-89
2023/11/28 08:49:09;;;;;;;3.35;1.95;;;3.50;99.90;;;;;;5027205;28;20355;-87
2023/11/28 08:51:41;;;;;;;9.13;2.10;;;3.50;99.90;;;;;;5034664;28;20034;-87
2023/11/28 08:54:06;;;;;;;3.30;1.83;;;4.30;99.90;;;;;;5028677;28;20025;-92
2023/11/28 08:56:32;;;;;;;3.53;1.85;;;3.50;99.90;;;;;;5039683;28;20385;-89
2023/11/28 08:58:57;;;;;;;2.95;1.45;;;3.60;99.90;;;;;;5034723;28;20052;-89
2023/11/28 09:01:23;;;;;;;3.33;1.75;;;3.60;99.90;;;;;;5032105;28;20033;-89
2023/11/28 09:03:54;;;;;;;3.78;1.85;;;3.70;99.90;;;;;;5026272;28;20026;-87
2023/11/28 09:06:20;;;;;;;5.15;2.35;;;2.90;99.90;;;;;;5029788;28;20466;-89
2023/11/28 09:09:25;;;;;;;6.47;2.10;;;3.80;99.90;;;;;;5145416;22;20053;-93
2023/11/28 09:32:29;;;;;;;5.53;2.13;;;3.90;99.90;;;;;;5014079;28;20050;-92
2023/11/28 09:34:55;;;;;;;3.20;2.00;;;4.60;99.90;;;;;;5011428;28;20073;-91
2023/11/28 09:37:21;;;;;;;2.63;1.98;;;3.70;99.90;;;;;;4995070;28;20398;-89
2023/11/28 09:39:47;;;;;;;5.20;2.05;;;4.00;99.90;;;;;;5020561;28;20026;-89
2023/11/28 09:42:25;;;;;;;2.50;1.85;;;4.50;99.90;;;;;;4999416;28;20019;-92
2023/11/28 09:44:58;;;;;;;3.30;2.55;;;4.40;99.90;;;;;;5001953;28;20022;-93
2023/11/28 09:47:24;;;;;;;4.00;1.83;;;4.60;99.90;;;;;;5002411;28;20033;-90
2023/11/28 09:49:55;;;;;;;7.90;2.38;;;4.80;99.90;;;;;;5012457;28;20030;-94
2023/11/28 09:52:24;;;;;;;2.95;1.92;;;4.10;99.90;;;;;;5001251;28;20034;-89
2023/11/28 09:54:53;;;;;;;3.58;2.45;;;4.40;99.90;;;;;;4997394;28;20467;-90
2023/11/28 09:57:20;;;;;;;2.20;1.90;;;3.90;99.90;;;;;;5012044;28;20057;-94
2023/11/28 09:59:51;;;;;;;4.18;2.58;;;4.00;99.90;;;;;;5009963;28;20030;-94
2023/11/28 10:05:19;;;;;;;3.17;2.47;;;5.10;99.90;;;;;;5096207;22;20121;-93
2023/11/28 10:07:53;;;;;;;3.53;2.35;;;4.10;99.90;;;;;;5053379;28;20022;-93
2023/11/28 10:10:21;;;;;;;3.50;1.95;;;3.70;99.90;;;;;;5335752;22;20058;-94
2023/11/28 10:12:50;;;;;;;5.00;2.47;;;3.10;99.90;;;;;;5000122;28;20446;-90
2023/11/28 10:15:21;;;;;;;4.95;2.38;;;4.20;99.90;;;;;;5005240;28;20049;-90
2023/11/28 10:17:48;;;;;;;3.00;1.67;;;4.10;99.90;;;;;;5018109;28;20034;-91
2023/11/28 10:20:14;;;;;;;2.50;2.15;;;4.10;99.90;;;;;;5000034;28;20030;-93
2023/11/28 10:22:52;;;;;;;3.03;2.35;;;4.20;99.90;;;;;;5010670;28;20089;-93
2023/11/28 10:25:19;;;;;;;2.13;1.60;;;4.20;99.90;;;;;;5016132;28;20030;-91
2023/11/28 10:27:46;;;;;;;2.88;2.20;;;4.20;99.90;;;;;;5011611;28;20516;-91
2023/11/28 10:30:16;;;;;;;4.22;2.00;;;4.20;99.90;;;;;;5016233;28;20091;-89
2023/11/28 10:32:42;;;;;;;2.38;1.83;;;4.30;99.90;;;;;;5013243;28;20047;-90
2023/11/28 10:35:09;;;;;;;3.22;2.33;;;4.30;99.90;;;;;;5013437;28;20022;-89
2023/11/28 10:37:35;;;;;;;2.10;1.90;;;4.30;99.90;;;;;;5013593;28;20033;-93
2023/11/28 10:40:04;;;;;;;3.05;1.90;;;4.30;99.90;;;;;;5003716;28;20134;-91
2023/11/28 10:42:30;;;;;;;3.35;2.17;;;4.30;99.90;;;;;;5016973;28;20030;-91
2023/11/28 10:44:59;;;;;;;5.07;2.40;;;4.30;99.90;;;;;;5016137;28;20116;-90
2023/11/28 10:47:31;;;;;;;2.38;2.08;;;4.30;99.90;;;;;;5016281;28;20056;-89
2023/11/28 10:49:56;;;;;;;5.10;2.20;;;4.30;99.90;;;;;;5015348;28;20021;-90
2023/11/28 10:52:26;;;;;;;2.78;2.25;;;4.40;99.90;;;;;;5015626;28;20045;-92
2023/11/28 10:54:55;;;;;;;5.35;2.25;;;4.30;99.90;;;;;;5007364;28;20026;-89
2023/11/28 10:57:27;;;;;;;2.35;2.15;;;4.30;99.90;;;;;;5012396;28;20030;-91
2023/11/28 11:00:09;;;;;;;4.50;1.88;;;4.30;99.90;;;;;;5019456;28;20030;-92
2023/11/28 11:02:35;;;;;;;3.55;2.75;;;4.30;99.90;;;;;;5017859;28;20076;-93
2023/11/28 11:05:06;;;;;;;4.07;2.65;;;4.40;99.90;;;;;;5005116;28;20021;-92
2023/11/28 11:07:32;;;;;;;;;;;4.40;99.90;;;;;;5028043;28;20057;-95
2023/11/28 11:09:58;;;;;;;4.63;2.17;;;4.40;99.90;;;;;;5015799;28;19913;-92
2023/11/28 11:12:24;;;;;;;3.30;1.90;;;4.40;99.90;;;;;;5015866;28;20068;-91
2023/11/28 11:15:17;;;;;;;5.00;2.15;;;4.40;99.90;;;;;;5017351;28;20045;-90
2023/11/28 11:18:02;;;;;;;3.50;2.13;;;4.40;99.90;;;;;;5018271;28;20465;-91
2023/11/28 11:20:32;;;;;;;3.67;2.22;;;4.50;99.90;;;;;;5009560;28;20028;-92
2023/11/28 11:23:01;;;;;;;1.85;1.63;;;4.50;99.90;;;;;;5020582;28;20026;-93
2023/11/28 11:25:41;;;;;;;3.10;1.88;;;4.50;99.90;;;;;;5070591;22;20065;-92
2023/11/28 11:28:08;;;;;;;2.63;1.75;;;4.50;99.90;;;;;;5045482;28;20027;-95
2023/11/28 11:30:36;;;;;;;4.22;1.92;;;4.60;99.90;;;;;;5008656;28;20034;-95
2023/11/28 11:33:04;;;;;;;3.90;1.73;;;4.60;99.90;;;;;;5014735;28;20054;-95
2023/11/28 11:35:31;;;;;;;3.80;1.60;;;4.70;99.90;;;;;;5087210;22;20105;-93
2023/11/28 11:38:01;;;;;;;4.00;1.85;;;5.10;99.90;;;;;;5055824;28;20021;-94
2023/11/28 11:40:28;;;;;;;4.60;2.00;;;4.50;99.90;;;;;;5048945;28;20124;-95
2023/11/28 11:42:54;;;;;;;2.22;2.03;;;4.40;99.90;;;;;;5055160;28;20284;-95
2023/11/28 11:45:20;;;;;;;4.28;1.42;;;4.70;99.90;;;;;;5051351;28;20033;-93
2023/11/28 11:47:46;;;;;;;4.00;1.83;;;4.80;99.90;;;;;;5041098;28;20017;-94
2023/11/28 11:50:19;;;;;;;3.90;2.78;;;4.60;99.90;;;;;;5046030;28;20034;-92
2023/11/28 11:52:45;;;;;;;2.10;1.80;;;4.90;99.90;;;;;;5074409;22;20119;-92
2023/11/28 11:55:13;;;;;;;2.63;1.77;;;5.60;99.90;;;;;;5035746;28;20026;-88
2023/11/28 11:57:41;;;;;;;3.00;1.85;;;4.90;99.90;;;;;;5034080;28;20028;-94
2023/11/28 12:00:10;;;;;;;1.77;1.60;;;4.80;99.90;;;;;;5071575;22;20057;-90
2023/11/28 12:02:37;;;;;;;3.00;2.20;;;4.90;99.90;;;;;;5103192;22;20591;-91
2023/11/28 12:05:03;;;;;;;2.92;2.00;;;4.90;99.90;;;;;;5016648;28;20029;-90
2023/11/28 12:07:29;;;;;;;5.57;2.17;;;5.00;99.90;;;;;;5015753;28;20037;-86
2023/11/28 12:09:55;;;;;;;2.83;1.77;;;5.00;99.90;;;;;;5013286;28;20014;-90
2023/11/28 12:12:20;;;;;;;2.35;1.83;;;5.00;99.90;;;;;;5018730;28;20045;-91
2023/11/28 12:14:46;;;;;;;5.40;1.98;;;5.10;99.90;;;;;;5027069;28;20072;-94
2023/11/28 12:17:13;;;;;;;1.58;1.48;;;5.00;99.90;;;;;;5279468;22;20046;-95
2023/11/28 12:19:41;;;;;;;2.30;1.92;;;5.80;99.90;;;;;;5043703;28;20049;-93
2023/11/28 12:22:10;;;;;;;3.63;2.15;;;4.80;99.90;;;;;;5036395;28;20067;-94
2023/11/28 12:24:36;;;;;;;3.35;1.77;;;5.40;99.90;;;;;;5034320;28;20010;-93
2023/11/28 12:27:02;;;;;;;3.70;1.75;;;5.90;99.90;;;;;;5024582;28;20046;-92
2023/11/28 12:29:30;;;;;;;1.60;1.45;;;5.10;99.90;;;;;;5037964;28;20052;-93
2023/11/28 12:31:55;;;;;;;4.15;1.90;;;5.10;99.90;;;;;;5040892;28;20037;-92
2023/11/28 12:34:23;;;;;;;2.20;1.45;;;5.70;99.90;;;;;;5024031;28;20030;-93
2023/11/28 12:36:49;;;;;;;1.73;1.45;;;5.90;99.90;;;;;;5030389;28;20025;-94
2023/11/28 12:39:21;;;;;;;2.72;1.40;;;4.80;99.90;;;;;;5023577;28;20098;-95
2023/11/28 12:41:48;;;;;;;6.53;1.65;;;5.10;99.90;;;;;;5021969;28;20034;-93
2023/11/28 12:44:14;;;;;;;3.33;1.90;;;6.40;99.90;;;;;;5042571;28;20033;-95
2023/11/28 12:46:41;;;;;;;2.17;1.42;;;6.20;99.90;;;;;;5050010;28;20042;-94
2023/11/28 12:49:09;;;;;;;2.33;1.80;;;5.20;99.90;;;;;;5052868;28;20524;-90
2023/11/28 12:51:36;;;;;;;1.67;1.48;;;4.60;99.90;;;;;;5051491;28;20022;-92
2023/11/28 12:54:06;;;;;;;5.10;1.88;;;5.10;99.90;;;;;;5031853;28;20040;-92
2023/11/28 12:56:36;;;;;;;3.40;1.65;;;5.20;99.90;;;;;;5038262;28;20037;-93
2023/11/28 12:59:03;;;;;;;2.72;1.77;;;5.90;99.90;;;;;;5054608;28;20021;-92
2023/11/28 13:01:33;;;;;;;3.33;1.50;;;6.00;99.90;;;;;;5048043;28;20085;-92
2023/11/28 13:04:00;;;;;;;2.20;1.70;;;5.20;99.90;;;;;;5033028;28;20022;-93
2023/11/28 13:06:26;;;;;;;2.53;1.70;;;5.10;99.90;;;;;;5034215;28;20053;-92
2023/11/28 13:08:53;;;;;;;5.40;1.73;;;6.10;99.90;;;;;;5017460;28;20290;-91
2023/11/28 13:11:20;;;;;;;3.10;1.52;;;5.40;99.90;;;;;;5021979;28;20041;-90
2023/11/28 13:13:46;;;;;;;2.45;1.77;;;5.40;99.90;;;;;;5026559;28;20034;-91
2023/11/28 13:16:11;;;;;;;2.35;2.05;;;5.40;99.90;;;;;;5019936;28;20061;-91
2023/11/28 13:18:37;;;;;;;2.42;1.88;;;5.40;99.90;;;;;;5038381;28;20469;-91
2023/11/28 13:21:03;;;;;;;2.53;1.92;;;5.40;99.90;;;;;;5038581;28;20036;-91
2023/11/28 13:23:31;;;;;;;2.05;1.55;;;5.40;99.90;;;;;;5030121;28;20026;-91
2023/11/28 13:25:57;;;;;;;4.53;1.90;;;5.40;99.90;;;;;;5019171;28;20033;-91
2023/11/28 13:28:24;;;;;;;5.10;1.95;;;5.40;99.90;;;;;;5019420;28;20038;-91
2023/11/28 13:30:52;;;;;;;3.35;2.38;;;5.40;99.90;;;;;;5017593;28;20030;-92